createdAt,value
2018-06-05T00:01:29.265Z,31.23
2018-06-05T00:03:58.035Z,27.00
2018-06-05T00:06:26.840Z,26.70
2018-06-05T00:08:55.721Z,24.67
2018-06-05T00:11:24.491Z,24.50
2018-06-05T00:13:53.284Z,27.70
2018-06-05T00:16:22.099Z,24.60
2018-06-05T00:18:50.880Z,28.30
2018-06-05T00:21:19.700Z,28.80
2018-06-05T00:23:48.508Z,23.47
2018-06-05T00:26:17.290Z,24.17
2018-06-05T00:28:46.374Z,22.33
2018-06-05T00:31:15.180Z,23.30
2018-06-05T00:33:44.000Z,22.93
2018-06-05T00:36:12.776Z,22.53
2018-06-05T00:38:41.571Z,25.33
2018-06-05T00:41:10.385Z,26.20
2018-06-05T00:43:39.140Z,22.20
2018-06-05T00:46:07.981Z,23.60
2018-06-05T00:48:36.728Z,23.87
2018-06-05T00:51:22.474Z,24.87
2018-06-05T00:53:51.581Z,25.50
2018-06-05T00:56:20.552Z,22.27
2018-06-05T00:58:49.693Z,23.77
2018-06-05T01:01:18.442Z,23.20
2018-06-05T01:03:47.201Z,24.03
2018-06-05T01:06:15.924Z,19.80
2018-06-05T01:08:45.059Z,21.10
2018-06-05T01:11:13.859Z,24.67
2018-06-05T01:13:42.691Z,23.93
2018-06-05T01:16:11.458Z,22.03
2018-06-05T01:18:40.042Z,20.63
2018-06-05T01:21:09.052Z,21.53
2018-06-05T01:23:38.059Z,18.83
2018-06-05T01:26:06.839Z,18.03
2018-06-05T01:28:35.671Z,21.87
2018-06-05T01:31:04.467Z,22.10
2018-06-05T01:33:33.283Z,22.23
2018-06-05T01:36:01.921Z,27.30
2018-06-05T01:38:30.685Z,18.60
2018-06-05T01:40:59.570Z,22.80
2018-06-05T01:43:28.572Z,23.87
2018-06-05T01:45:57.737Z,20.30
2018-06-05T01:48:26.507Z,20.63
2018-06-05T01:50:55.351Z,23.00
2018-06-05T01:53:24.146Z,23.67
2018-06-05T01:55:52.921Z,19.43
2018-06-05T01:58:21.792Z,20.63
2018-06-05T02:00:50.555Z,18.67
2018-06-05T02:03:19.307Z,20.23
2018-06-05T02:05:48.135Z,22.07
2018-06-05T02:08:16.896Z,16.63
2018-06-05T02:10:45.551Z,19.77
2018-06-05T02:13:14.438Z,18.80
2018-06-05T02:15:43.208Z,17.40
2018-06-05T02:18:11.971Z,18.40
2018-06-05T02:20:40.787Z,17.07
2018-06-05T02:23:09.601Z,17.43
2018-06-05T02:25:38.391Z,13.77
2018-06-05T02:28:07.046Z,15.87
2018-06-05T02:30:35.844Z,13.63
2018-06-05T02:33:04.602Z,11.23
2018-06-05T02:35:33.313Z,12.70
2018-06-05T02:38:02.081Z,12.43
2018-06-05T02:40:31.074Z,13.70
2018-06-05T02:43:00.232Z,13.10
2018-06-05T02:45:35.285Z,17.30
2018-06-05T02:48:04.531Z,16.03
2018-06-05T02:50:33.292Z,16.30
2018-06-05T02:53:02.361Z,15.97
2018-06-05T02:55:31.187Z,13.30
2018-06-05T02:58:00.458Z,16.73
2018-06-05T03:00:29.271Z,14.70
2018-06-05T03:02:58.067Z,13.93
2018-06-05T03:05:27.136Z,17.87
2018-06-05T03:07:55.976Z,14.93
2018-06-05T03:10:24.800Z,16.43
2018-06-05T03:12:53.604Z,18.10
2018-06-05T03:15:22.403Z,12.37
2018-06-05T03:17:51.212Z,16.27
2018-06-05T03:20:19.955Z,16.60
2018-06-05T03:22:48.537Z,13.27
2018-06-05T03:25:17.391Z,12.77
2018-06-05T03:27:46.367Z,14.83
2018-06-05T03:30:15.099Z,17.77
2018-06-05T03:32:43.909Z,14.03
2018-06-05T03:35:12.494Z,16.10
2018-06-05T03:37:41.634Z,12.00
2018-06-05T03:40:10.432Z,14.53
2018-06-05T03:42:39.214Z,9.87
2018-06-05T03:45:08.011Z,12.70
2018-06-05T03:47:36.945Z,19.73
2018-06-05T03:50:05.769Z,14.83
2018-06-05T03:52:34.510Z,14.67
2018-06-05T03:55:03.712Z,11.73
2018-06-05T03:57:32.481Z,14.20
2018-06-05T04:00:01.226Z,16.67
2018-06-05T04:02:30.224Z,10.10
2018-06-05T04:04:59.050Z,12.27
2018-06-05T04:07:27.814Z,11.13
2018-06-05T04:09:56.634Z,12.20
2018-06-05T04:12:25.379Z,15.63
2018-06-05T04:14:54.193Z,14.67
2018-06-05T04:17:23.886Z,12.07
2018-06-05T04:19:52.792Z,10.10
2018-06-05T04:22:21.540Z,13.03
2018-06-05T04:24:50.167Z,15.47
2018-06-05T04:27:18.987Z,12.07
2018-06-05T04:29:47.751Z,16.53
2018-06-05T04:32:16.650Z,14.07
2018-06-05T04:34:45.456Z,12.93
2018-06-05T04:37:14.239Z,13.77
2018-06-05T04:39:43.125Z,13.58
2018-06-05T04:42:12.396Z,17.80
2018-06-05T04:44:41.676Z,11.97
2018-06-05T04:47:10.747Z,16.17
2018-06-05T04:49:39.531Z,14.30
2018-06-05T04:52:08.350Z,15.87
2018-06-05T04:54:37.000Z,12.43
2018-06-05T04:57:05.820Z,14.63
2018-06-05T04:59:34.567Z,16.73
2018-06-05T05:02:03.372Z,11.13
2018-06-05T05:04:48.947Z,17.13
2018-06-05T05:07:17.763Z,11.87
2018-06-05T05:09:46.540Z,14.40
2018-06-05T05:12:15.301Z,14.93
2018-06-05T05:14:44.243Z,11.03
2018-06-05T05:17:13.000Z,15.63
2018-06-05T05:19:41.768Z,10.50
2018-06-05T05:22:10.704Z,13.57
2018-06-05T05:24:39.451Z,14.77
2018-06-05T05:27:08.343Z,14.30
2018-06-05T05:29:37.225Z,11.73
2018-06-05T05:32:06.136Z,15.10
2018-06-05T05:34:34.892Z,12.33
2018-06-05T05:37:03.635Z,13.53
2018-06-05T05:39:32.607Z,12.87
2018-06-05T05:42:01.358Z,11.33
2018-06-05T05:44:29.973Z,15.73
2018-06-05T05:46:58.736Z,13.97
2018-06-05T05:49:27.500Z,13.80
2018-06-05T05:51:56.442Z,18.50
2018-06-05T05:54:25.193Z,11.57
2018-06-05T05:56:53.789Z,15.77
2018-06-05T05:59:22.445Z,15.73
2018-06-05T06:01:51.192Z,19.53
2018-06-05T06:04:20.080Z,13.50
2018-06-05T06:06:48.964Z,17.00
2018-06-05T06:09:17.719Z,15.50
2018-06-05T06:11:46.588Z,20.00
2018-06-05T06:14:15.561Z,13.70
2018-06-05T06:16:44.488Z,14.27
2018-06-05T06:19:13.340Z,13.20
2018-06-05T06:21:42.569Z,17.03
2018-06-05T06:24:11.468Z,14.23
2018-06-05T06:26:40.232Z,16.73
2018-06-05T06:29:08.898Z,15.70
2018-06-05T06:31:37.655Z,14.33
2018-06-05T06:34:06.496Z,12.80
2018-06-05T06:36:35.281Z,12.67
2018-06-05T06:39:07.113Z,16.53
2018-06-05T06:41:36.127Z,16.83
2018-06-05T06:44:04.975Z,13.73
2018-06-05T06:46:33.751Z,11.23
2018-06-05T06:49:02.603Z,9.17
2018-06-05T06:51:31.348Z,16.73
2018-06-05T06:54:00.207Z,20.00
2018-06-05T06:56:29.094Z,13.27
2018-06-05T06:58:57.876Z,11.33
2018-06-05T07:01:26.660Z,13.27
2018-06-05T07:03:55.454Z,12.60
2018-06-05T07:06:24.343Z,12.37
2018-06-05T07:08:53.100Z,10.37
2018-06-05T07:11:21.927Z,12.77
2018-06-05T07:13:50.706Z,11.57
2018-06-05T07:16:19.487Z,12.17
2018-06-05T07:18:48.480Z,13.87
2018-06-05T07:21:17.228Z,12.60
2018-06-05T07:23:46.247Z,15.67
2018-06-05T07:26:14.872Z,14.87
2018-06-05T07:28:43.636Z,13.00
2018-06-05T07:31:12.485Z,14.27
2018-06-05T07:33:41.277Z,11.07
2018-06-05T07:36:10.351Z,10.97
2018-06-05T07:38:39.097Z,12.17
2018-06-05T07:41:07.917Z,13.50
2018-06-05T07:43:36.727Z,11.93
2018-06-05T07:46:05.516Z,10.40
2018-06-05T07:48:34.323Z,13.57
2018-06-05T07:51:03.069Z,12.87
2018-06-05T07:53:31.799Z,14.67
2018-06-05T07:56:00.710Z,11.50
2018-06-05T07:58:29.489Z,11.80
2018-06-05T08:00:58.240Z,14.57
2018-06-05T08:03:27.040Z,13.07
2018-06-05T08:05:55.805Z,11.53
2018-06-05T08:08:24.675Z,13.27
2018-06-05T08:10:53.431Z,14.93
2018-06-05T08:13:22.540Z,17.70
2018-06-05T08:15:51.307Z,16.30
2018-06-05T08:18:20.421Z,15.47
2018-06-05T08:20:49.231Z,13.93
2018-06-05T08:23:17.990Z,17.10
2018-06-05T08:25:46.772Z,12.67
2018-06-05T08:28:15.520Z,12.63
2018-06-05T08:30:44.388Z,12.40
2018-06-05T08:33:13.568Z,14.83
2018-06-05T08:35:42.391Z,12.30
2018-06-05T08:38:11.421Z,14.00
2018-06-05T08:40:40.167Z,13.33
2018-06-05T08:43:08.792Z,15.20
2018-06-05T08:45:41.951Z,14.67
2018-06-05T08:48:10.875Z,14.87
2018-06-05T08:50:39.624Z,13.27
2018-06-05T08:53:08.226Z,13.13
2018-06-05T08:55:37.088Z,13.57
2018-06-05T08:58:05.897Z,12.27
2018-06-05T09:00:34.698Z,14.07
2018-06-05T09:03:03.573Z,15.40
2018-06-05T09:05:32.161Z,13.07
2018-06-05T09:08:01.371Z,17.73
2018-06-05T09:10:30.168Z,13.77
2018-06-05T09:12:58.915Z,18.57
2018-06-05T09:15:27.892Z,15.77
2018-06-05T09:17:56.658Z,12.70
2018-06-05T09:20:25.728Z,12.23
2018-06-05T09:22:54.558Z,12.30
2018-06-05T09:25:23.831Z,12.80
2018-06-05T09:27:52.591Z,13.10
2018-06-05T09:30:21.191Z,11.63
2018-06-05T09:32:50.064Z,10.60
2018-06-05T09:35:18.669Z,17.33
2018-06-05T09:37:47.443Z,12.70
2018-06-05T09:40:16.460Z,13.53
2018-06-05T09:42:45.220Z,14.07
2018-06-05T09:45:14.076Z,14.20
2018-06-05T09:47:42.903Z,13.70
2018-06-05T09:50:11.531Z,15.33
2018-06-05T09:52:40.597Z,11.13
2018-06-05T09:55:09.196Z,12.63
2018-06-05T09:57:37.902Z,10.03
2018-06-05T10:00:07.013Z,7.93
2018-06-05T10:02:35.766Z,12.43
2018-06-05T10:05:04.707Z,10.83
2018-06-05T10:07:33.473Z,10.27
2018-06-05T10:10:02.137Z,11.57
2018-06-05T10:12:30.958Z,13.93
2018-06-05T10:14:59.703Z,12.57
2018-06-05T10:17:28.674Z,14.10
2018-06-05T10:19:57.426Z,12.17
2018-06-05T10:22:26.099Z,12.60
2018-06-05T10:24:55.016Z,9.67
2018-06-05T10:27:23.776Z,16.33
2018-06-05T10:29:52.608Z,12.40
2018-06-05T10:32:21.407Z,10.83
2018-06-05T10:34:50.269Z,15.00
2018-06-05T10:37:19.039Z,15.83
2018-06-05T10:39:47.865Z,12.90
2018-06-05T10:42:16.671Z,14.97
2018-06-05T10:44:45.776Z,15.53
2018-06-05T10:47:14.736Z,15.37
2018-06-05T10:49:43.840Z,11.50
2018-06-05T10:52:12.598Z,17.47
2018-06-05T10:54:41.425Z,15.60
2018-06-05T10:57:10.233Z,18.13
2018-06-05T10:59:39.098Z,14.50
2018-06-05T11:02:08.196Z,12.37
2018-06-05T11:04:37.003Z,20.00
2018-06-05T11:07:05.766Z,16.23
2018-06-05T11:09:35.136Z,14.23
2018-06-05T11:12:03.979Z,17.23
2018-06-05T11:14:32.911Z,16.07
2018-06-05T11:17:01.493Z,18.23
2018-06-05T11:19:30.082Z,12.83
2018-06-05T11:21:58.718Z,11.10
2018-06-05T11:24:27.834Z,15.53
2018-06-05T11:26:56.632Z,14.53
2018-06-05T11:29:25.708Z,18.40
2018-06-05T11:31:54.900Z,12.90
2018-06-05T11:34:23.650Z,13.77
2018-06-05T11:36:52.854Z,16.40
2018-06-05T11:39:21.659Z,15.80
2018-06-05T11:41:50.407Z,13.37
2018-06-05T11:44:19.278Z,16.73
2018-06-05T11:46:48.318Z,11.97
2018-06-05T11:49:17.473Z,11.03
2018-06-05T11:51:46.224Z,12.17
2018-06-05T11:54:15.137Z,12.77
2018-06-05T11:56:43.902Z,13.03
2018-06-05T11:59:12.647Z,12.93
2018-06-05T12:01:41.956Z,14.93
2018-06-05T12:04:10.703Z,12.97
2018-06-05T12:06:39.539Z,11.50
2018-06-05T12:09:08.441Z,9.37
2018-06-05T12:11:37.273Z,13.07
2018-06-05T12:14:06.248Z,13.83
2018-06-05T12:16:35.027Z,13.60
2018-06-05T12:19:03.807Z,10.87
2018-06-05T12:21:32.852Z,11.07
2018-06-05T12:24:01.600Z,11.83
2018-06-05T12:26:30.417Z,9.77
2018-06-05T12:28:59.519Z,10.13
2018-06-05T12:31:28.356Z,11.63
2018-06-05T12:33:57.179Z,12.97
2018-06-05T12:36:25.955Z,10.97
2018-06-05T12:38:55.100Z,10.50
2018-06-05T12:41:23.884Z,12.60
2018-06-05T12:43:52.989Z,12.27
2018-06-05T12:46:21.827Z,10.57
2018-06-05T12:48:50.981Z,8.53
2018-06-05T12:51:19.848Z,12.43
2018-06-05T12:53:48.623Z,9.80
2018-06-05T12:56:17.527Z,10.77
2018-06-05T12:58:46.630Z,10.87
2018-06-05T13:01:15.403Z,10.40
2018-06-05T13:03:44.048Z,10.70
2018-06-05T13:06:13.006Z,9.70
2018-06-05T13:08:41.889Z,13.57
2018-06-05T13:11:10.707Z,11.57
2018-06-05T13:13:39.467Z,10.83
2018-06-05T13:16:08.263Z,9.53
2018-06-05T13:18:37.014Z,8.97
2018-06-05T13:21:05.929Z,11.80
2018-06-05T13:23:34.732Z,7.57
2018-06-05T13:26:03.595Z,11.47
2018-06-05T13:28:32.823Z,11.30
2018-06-05T13:31:01.640Z,11.17
2018-06-05T13:33:30.245Z,9.93
2018-06-05T13:35:58.968Z,8.07
2018-06-05T13:38:27.716Z,8.87
2018-06-05T13:40:56.637Z,6.70
2018-06-05T13:43:25.495Z,11.23
2018-06-05T13:45:54.106Z,8.90
2018-06-05T13:48:22.903Z,9.53
2018-06-05T13:50:51.670Z,12.70
2018-06-05T13:53:20.882Z,11.50
2018-06-05T13:55:49.645Z,12.23
2018-06-05T13:58:18.412Z,10.03
2018-06-05T14:00:47.273Z,10.90
2018-06-05T14:03:16.048Z,10.10
2018-06-05T14:05:44.780Z,12.47
2018-06-05T14:08:13.553Z,12.43
2018-06-05T14:10:42.364Z,10.17
2018-06-05T14:13:11.122Z,12.97
2018-06-05T14:15:39.883Z,8.20
2018-06-05T14:18:08.777Z,6.37
2018-06-05T14:20:37.950Z,8.73
2018-06-05T14:23:06.749Z,9.67
2018-06-05T14:25:35.356Z,7.90
2018-06-05T14:28:04.198Z,6.53
2018-06-05T14:30:33.119Z,9.43
2018-06-05T14:33:01.771Z,9.97
2018-06-05T14:35:30.622Z,7.50
2018-06-05T14:37:59.238Z,8.70
2018-06-05T14:40:28.023Z,9.60
2018-06-05T14:42:56.987Z,7.10
2018-06-05T14:45:31.829Z,10.90
2018-06-05T14:48:00.956Z,11.03
2018-06-05T14:50:29.751Z,7.40
2018-06-05T14:52:58.562Z,9.27
2018-06-05T14:55:27.642Z,9.67
2018-06-05T14:57:56.463Z,12.57
2018-06-05T15:00:25.521Z,7.07
2018-06-05T15:02:54.880Z,8.93
2018-06-05T15:05:23.888Z,12.33
2018-06-05T15:07:52.713Z,8.50
2018-06-05T15:10:21.504Z,11.37
2018-06-05T15:12:50.472Z,9.90
2018-06-05T15:15:19.252Z,8.37
2018-06-05T15:17:47.924Z,9.33
2018-06-05T15:20:16.732Z,7.43
2018-06-05T15:22:45.512Z,9.90
2018-06-05T15:25:14.291Z,4.47
2018-06-05T15:27:43.146Z,5.43
2018-06-05T15:30:11.987Z,9.57
2018-06-05T15:32:41.115Z,7.77
2018-06-05T15:35:09.892Z,7.33
2018-06-05T15:37:38.654Z,8.53
2018-06-05T15:40:07.502Z,9.07
2018-06-05T15:42:36.599Z,7.67
2018-06-05T15:45:05.520Z,8.83
2018-06-05T15:47:34.332Z,6.97
2018-06-05T15:50:03.188Z,9.70
2018-06-05T15:52:31.792Z,9.80
2018-06-05T15:55:00.656Z,5.83
2018-06-05T15:57:29.460Z,7.17
2018-06-05T15:59:58.233Z,7.80
2018-06-05T16:02:27.024Z,10.47
2018-06-05T16:04:55.702Z,11.90
2018-06-05T16:07:24.707Z,7.63
2018-06-05T16:09:53.459Z,8.87
2018-06-05T16:12:22.211Z,9.33
2018-06-05T16:14:51.042Z,9.63
2018-06-05T16:17:19.823Z,7.73
2018-06-05T16:19:48.655Z,5.97
2018-06-05T16:22:17.401Z,9.53
2018-06-05T16:24:46.548Z,6.27
2018-06-05T16:27:15.340Z,7.73
2018-06-05T16:29:43.954Z,6.87
2018-06-05T16:32:13.011Z,8.53
2018-06-05T16:34:42.076Z,6.50
2018-06-05T16:37:10.834Z,7.97
2018-06-05T16:39:39.574Z,9.43
2018-06-05T16:42:08.647Z,6.20
2018-06-05T16:44:37.483Z,8.60
2018-06-05T16:47:06.605Z,6.47
2018-06-05T16:49:35.380Z,7.40
2018-06-05T16:52:04.061Z,8.47
2018-06-05T16:54:32.671Z,10.77
2018-06-05T16:57:01.603Z,11.73
2018-06-05T16:59:30.359Z,8.27
2018-06-05T17:01:59.219Z,5.83
2018-06-05T17:04:28.264Z,8.67
2018-06-05T17:06:56.891Z,8.90
2018-06-05T17:09:25.740Z,8.93
2018-06-05T17:11:54.487Z,9.47
2018-06-05T17:14:23.647Z,8.00
2018-06-05T17:16:52.456Z,10.63
2018-06-05T17:19:21.542Z,8.33
2018-06-05T17:21:50.366Z,6.40
2018-06-05T17:24:19.519Z,5.47
2018-06-05T17:26:48.280Z,8.77
2018-06-05T17:29:17.361Z,10.13
2018-06-05T17:31:46.122Z,8.93
2018-06-05T17:34:15.252Z,8.80
2018-06-05T17:36:44.056Z,9.47
2018-06-05T17:39:12.839Z,9.87
2018-06-05T17:41:42.032Z,14.00
2018-06-05T17:44:10.844Z,12.00
2018-06-05T17:46:39.494Z,14.60
2018-06-05T17:49:08.294Z,13.50
2018-06-05T17:51:37.102Z,11.23
2018-06-05T17:54:05.907Z,15.77
2018-06-05T17:56:34.728Z,11.73
2018-06-05T17:59:03.566Z,11.90
2018-06-05T18:01:32.661Z,19.40
2018-06-05T18:04:01.839Z,17.47
2018-06-05T18:06:30.603Z,15.73
2018-06-05T18:08:59.638Z,14.60
2018-06-05T18:11:28.495Z,13.70
2018-06-05T18:13:57.361Z,16.57
2018-06-05T18:16:26.175Z,13.17
2018-06-05T18:18:54.995Z,17.23
2018-06-05T18:21:24.055Z,13.10
2018-06-05T18:23:54.653Z,19.93
2018-06-05T18:26:23.784Z,23.97
2018-06-05T18:28:52.551Z,14.40
2018-06-05T18:31:21.321Z,12.63
2018-06-05T18:33:51.172Z,15.07
2018-06-05T18:36:20.300Z,14.03
2018-06-05T18:38:49.121Z,13.43
2018-06-05T18:41:17.890Z,17.87
2018-06-05T18:43:47.008Z,19.17
2018-06-05T18:46:16.178Z,14.77
2018-06-05T18:48:45.352Z,18.53
2018-06-05T18:51:14.390Z,14.40
2018-06-05T18:53:43.811Z,21.57
2018-06-05T18:56:12.572Z,17.33
2018-06-05T18:58:41.388Z,18.40
2018-06-05T19:01:10.038Z,18.90
2018-06-05T19:03:38.827Z,14.83
2018-06-05T19:06:07.606Z,16.60
2018-06-05T19:08:36.211Z,16.70
2018-06-05T19:11:04.991Z,16.87
2018-06-05T19:13:33.893Z,13.47
2018-06-05T19:16:02.660Z,18.03
2018-06-05T19:18:31.476Z,15.33
2018-06-05T19:21:00.262Z,16.87
2018-06-05T19:23:29.117Z,11.60
2018-06-05T19:25:57.939Z,14.30
2018-06-05T19:28:27.107Z,21.23
2018-06-05T19:30:55.757Z,16.27
2018-06-05T19:33:24.532Z,15.87
2018-06-05T19:35:53.365Z,17.00
2018-06-05T19:38:22.236Z,18.40
2018-06-05T19:40:51.359Z,16.67
2018-06-05T19:43:20.173Z,15.33
2018-06-05T19:45:55.239Z,14.43
2018-06-05T19:48:24.286Z,14.87
2018-06-05T19:50:53.043Z,20.20
2018-06-05T19:53:22.148Z,16.90
2018-06-05T19:55:51.005Z,22.43
2018-06-05T19:58:19.764Z,14.87
2018-06-05T20:00:49.027Z,15.90
2018-06-05T20:03:18.001Z,16.37
2018-06-05T20:05:46.836Z,18.33
2018-06-05T20:08:15.947Z,16.67
2018-06-05T20:10:44.543Z,14.63
2018-06-05T20:13:13.391Z,22.70
2018-06-05T20:15:42.181Z,19.13
2018-06-05T20:18:11.171Z,16.77
2018-06-05T20:20:39.964Z,20.77
2018-06-05T20:23:08.749Z,15.07
2018-06-05T20:25:37.606Z,19.97
2018-06-05T20:28:06.499Z,22.33
2018-06-05T20:30:35.319Z,16.00
2018-06-05T20:33:04.212Z,19.93
2018-06-05T20:35:33.411Z,13.67
2018-06-05T20:38:02.215Z,19.63
2018-06-05T20:40:31.081Z,19.43
2018-06-05T20:43:00.074Z,20.53
2018-06-05T20:45:34.869Z,18.40
2018-06-05T20:48:03.778Z,13.70
2018-06-05T20:50:32.731Z,17.47
2018-06-05T20:53:01.475Z,21.60
2018-06-05T20:55:30.358Z,20.03
2018-06-05T20:57:59.156Z,13.53
2018-06-05T21:00:27.825Z,23.20
2018-06-05T21:02:56.643Z,20.70
2018-06-05T21:05:25.574Z,15.30
2018-06-05T21:07:54.329Z,18.33
2018-06-05T21:10:23.184Z,14.93
2018-06-05T21:12:52.004Z,18.63
2018-06-05T21:15:21.074Z,23.70
2018-06-05T21:17:49.887Z,17.63
2018-06-05T21:20:18.651Z,14.90
2018-06-05T21:22:47.476Z,14.03
2018-06-05T21:25:16.122Z,25.23
2018-06-05T21:27:44.944Z,19.60
2018-06-05T21:30:13.783Z,22.00
2018-06-05T21:32:42.535Z,24.57
2018-06-05T21:35:11.351Z,24.17
2018-06-05T21:37:40.490Z,23.57
2018-06-05T21:40:09.337Z,17.77
2018-06-05T21:42:38.091Z,17.27
2018-06-05T21:45:07.064Z,20.87
2018-06-05T21:47:36.110Z,18.23
2018-06-05T21:50:05.132Z,19.00
2018-06-05T21:52:33.937Z,19.77
2018-06-05T21:55:02.768Z,18.43
2018-06-05T21:57:31.581Z,17.13
2018-06-05T22:00:00.356Z,16.03
2018-06-05T22:02:29.229Z,19.87
2018-06-05T22:04:58.007Z,19.43
2018-06-05T22:07:27.077Z,19.80
2018-06-05T22:09:55.662Z,18.17
2018-06-05T22:12:24.439Z,19.60
2018-06-05T22:14:53.619Z,21.70
2018-06-05T22:17:22.399Z,15.97
2018-06-05T22:19:51.159Z,16.43
2018-06-05T22:22:19.972Z,21.47
2018-06-05T22:24:48.742Z,19.90
2018-06-05T22:27:17.545Z,22.17
2018-06-05T22:29:46.599Z,17.40
2018-06-05T22:32:15.360Z,18.67
2018-06-05T22:34:44.184Z,18.57
2018-06-05T22:37:12.985Z,13.80
2018-06-05T22:39:42.337Z,22.53
2018-06-05T22:42:11.156Z,17.37
2018-06-05T22:44:39.775Z,20.03
2018-06-05T22:47:08.564Z,17.30
2018-06-05T22:49:37.624Z,23.00
2018-06-05T22:52:06.520Z,21.77
2018-06-05T22:54:35.312Z,20.90
2018-06-05T22:57:04.069Z,22.03
2018-06-05T22:59:32.878Z,26.50
2018-06-05T23:02:01.491Z,20.60
2018-06-05T23:04:30.332Z,19.00
2018-06-05T23:06:59.316Z,16.80
2018-06-05T23:09:28.087Z,18.40
2018-06-05T23:11:57.267Z,18.77
2018-06-05T23:14:26.089Z,18.37
2018-06-05T23:16:55.047Z,16.70
2018-06-05T23:19:24.185Z,21.23
2018-06-05T23:21:53.000Z,21.07
2018-06-05T23:24:22.135Z,24.77
2018-06-05T23:26:50.987Z,22.43
2018-06-05T23:29:20.179Z,15.07
2018-06-05T23:31:49.020Z,19.67
2018-06-05T23:34:17.840Z,21.37
2018-06-05T23:36:46.680Z,16.93
2018-06-05T23:39:15.439Z,25.27
2018-06-05T23:41:44.622Z,21.37
2018-06-05T23:44:13.384Z,18.37
2018-06-05T23:46:42.201Z,21.30
2018-06-05T23:49:11.132Z,19.53
2018-06-05T23:51:39.707Z,18.17
2018-06-05T23:54:08.520Z,15.73
2018-06-05T23:56:37.323Z,21.50
2018-06-05T23:59:06.122Z,20.00
